Time;durP1;ratioP1;P1;durP2;ratioP2;P2;SDS_P1;SDS_P2;PMS_P1;PMS_P2;Temp;Humidity;BMP_temperature;BMP_pressure;BME280_temperature;BME280_humidity;BME280_pressure;Samples;Min_cycle;Max_cycle;Signal;HPM_P1;HPM_P2
2022/10/16 05:00:22;;;;;;;3.23;2.30;;;16.70;97.20;;;;;;1707544;28;20237;-72
2022/10/16 05:01:12;;;;;;;3.20;2.55;;;16.70;97.20;;;;;;1707129;29;20198;-73
2022/10/16 05:02:04;;;;;;;5.40;2.30;;;16.70;97.20;;;;;;1707494;28;20218;-72
2022/10/16 05:02:55;;;;;;;4.22;2.55;;;16.70;97.20;;;;;;1707456;28;20520;-72
2022/10/16 05:03:47;;;;;;;3.10;2.57;;;16.70;97.20;;;;;;1707521;28;20202;-72
2022/10/16 05:04:38;;;;;;;11.88;3.15;;;16.70;97.20;;;;;;1707503;28;20206;-72
2022/10/16 05:05:29;;;;;;;7.30;3.07;;;16.70;97.20;;;;;;1707461;28;20201;-72
2022/10/16 05:06:20;;;;;;;6.88;2.50;;;16.70;97.20;;;;;;1707191;28;20203;-72
2022/10/16 05:07:12;;;;;;;4.10;2.33;;;16.70;97.20;;;;;;1707397;28;20207;-72
2022/10/16 05:08:03;;;;;;;8.02;2.50;;;16.60;97.20;;;;;;1707438;28;20696;-72
2022/10/16 05:08:55;;;;;;;6.47;2.30;;;16.60;97.20;;;;;;1707471;28;20574;-72
2022/10/16 05:09:46;;;;;;;5.25;2.28;;;16.60;97.20;;;;;;1707546;28;20202;-72
2022/10/16 05:10:38;;;;;;;3.40;2.10;;;16.60;97.20;;;;;;1707503;28;20222;-72
2022/10/16 05:11:28;;;;;;;4.07;1.90;;;16.60;97.20;;;;;;1703847;28;20206;-73
2022/10/16 05:12:20;;;;;;;2.77;1.90;;;16.60;97.20;;;;;;1701008;29;20207;-72
2022/10/16 05:13:11;;;;;;;3.05;2.33;;;16.60;97.20;;;;;;1700618;29;20231;-72
2022/10/16 05:14:03;;;;;;;2.80;2.50;;;16.60;97.20;;;;;;1700876;29;20203;-72
2022/10/16 05:14:58;;;;;;;4.30;3.00;;;16.60;97.20;;;;;;1700829;29;20207;-72
2022/10/16 05:15:51;;;;;;;6.53;3.05;;;16.60;97.20;;;;;;1700859;29;20211;-72
2022/10/16 05:16:42;;;;;;;6.10;3.47;;;16.60;97.20;;;;;;1700544;29;20211;-72
2022/10/16 05:17:33;;;;;;;6.90;3.73;;;16.60;97.20;;;;;;1700782;29;20201;-72
2022/10/16 05:18:24;;;;;;;4.57;3.50;;;16.60;97.20;;;;;;1700802;29;20214;-72
2022/10/16 05:19:16;;;;;;;9.90;3.57;;;16.60;97.20;;;;;;1700831;29;20206;-72
2022/10/16 05:20:07;;;;;;;6.65;3.28;;;16.50;97.20;;;;;;1700736;29;20203;-72
2022/10/16 05:20:59;;;;;;;6.20;3.03;;;16.50;97.20;;;;;;1700711;29;20235;-72
2022/10/16 05:21:49;;;;;;;4.07;2.75;;;16.50;97.20;;;;;;1700764;29;20206;-73
2022/10/16 05:22:41;;;;;;;4.63;3.27;;;16.50;97.20;;;;;;1700846;29;20202;-72
2022/10/16 05:23:32;;;;;;;3.83;3.08;;;16.50;97.20;;;;;;1700759;29;20242;-72
2022/10/16 05:24:24;;;;;;;13.73;3.80;;;16.50;97.20;;;;;;1700812;29;20246;-73
2022/10/16 05:25:15;;;;;;;5.68;3.30;;;16.50;97.20;;;;;;1700785;29;20450;-72
2022/10/16 05:26:07;;;;;;;3.80;3.50;;;16.40;97.20;;;;;;1700874;29;20270;-72
2022/10/16 05:26:57;;;;;;;4.85;3.33;;;16.50;97.20;;;;;;1700557;28;20467;-72
2022/10/16 05:27:50;;;;;;;9.70;3.97;;;16.40;97.20;;;;;;1701255;29;20203;-72
2022/10/16 05:28:40;;;;;;;3.78;3.47;;;16.40;97.20;;;;;;1704271;28;20556;-72
2022/10/16 05:29:32;;;;;;;6.23;3.57;;;16.50;97.20;;;;;;1707060;28;20579;-72
2022/10/16 05:30:23;;;;;;;3.65;2.75;;;16.50;97.20;;;;;;1706902;28;20683;-72
2022/10/16 05:31:16;;;;;;;6.17;3.43;;;16.50;97.20;;;;;;1707353;28;20588;-72
2022/10/16 05:32:08;;;;;;;4.13;3.00;;;16.50;97.20;;;;;;1707310;28;20207;-72
2022/10/16 05:33:00;;;;;;;4.93;2.90;;;16.50;97.20;;;;;;1707335;28;20657;-72
2022/10/16 05:33:50;;;;;;;12.63;3.38;;;16.50;97.20;;;;;;1707340;28;20206;-73
2022/10/16 05:34:42;;;;;;;5.07;2.50;;;16.50;97.20;;;;;;1707458;28;20217;-72
2022/10/16 05:35:34;;;;;;;8.32;2.58;;;16.50;97.20;;;;;;1707345;28;20203;-72
2022/10/16 05:36:24;;;;;;;3.83;2.60;;;16.50;97.20;;;;;;1707052;28;20249;-73
2022/10/16 05:37:16;;;;;;;3.83;2.30;;;16.50;97.20;;;;;;1707282;28;20238;-72
2022/10/16 05:38:07;;;;;;;7.55;2.15;;;16.50;97.20;;;;;;1707311;28;20213;-72
2022/10/16 05:38:59;;;;;;;6.17;2.20;;;16.50;97.20;;;;;;1707327;28;20687;-72
2022/10/16 05:39:49;;;;;;;4.25;2.30;;;16.50;97.20;;;;;;1707323;28;20202;-72
2022/10/16 05:40:41;;;;;;;2.60;2.03;;;16.50;97.20;;;;;;1707279;28;20211;-72
2022/10/16 05:41:32;;;;;;;3.45;2.20;;;16.50;97.20;;;;;;1707296;28;20230;-72
2022/10/16 05:42:23;;;;;;;5.07;2.30;;;16.50;97.20;;;;;;1707351;28;20289;-72
2022/10/16 05:43:14;;;;;;;3.67;2.05;;;16.50;97.20;;;;;;1707331;28;20217;-73
2022/10/16 05:44:06;;;;;;;6.47;2.10;;;16.50;97.20;;;;;;1707332;28;20683;-72
2022/10/16 05:44:57;;;;;;;5.75;2.05;;;16.50;97.20;;;;;;1704306;28;20205;-72
2022/10/16 05:45:55;;;;;;;3.33;2.13;;;16.50;97.20;;;;;;1700668;29;20205;-72
2022/10/16 05:46:48;;;;;;;6.18;2.50;;;16.50;97.20;;;;;;1700464;29;20685;-73
2022/10/16 05:47:39;;;;;;;7.35;2.20;;;16.50;97.20;;;;;;1700639;29;20207;-72
2022/10/16 05:48:32;;;;;;;5.75;2.60;;;16.50;97.20;;;;;;1700703;29;20565;-72
2022/10/16 05:49:22;;;;;;;7.32;2.97;;;16.50;97.20;;;;;;1701974;29;20219;-72
2022/10/16 05:50:14;;;;;;;7.40;2.13;;;16.50;97.20;;;;;;1702059;29;20282;-73
2022/10/16 05:51:07;;;;;;;5.28;2.63;;;16.50;97.20;;;;;;1702006;29;20210;-72
2022/10/16 05:51:58;;;;;;;11.82;3.05;;;16.40;97.20;;;;;;1702065;29;20235;-72
2022/10/16 05:52:49;;;;;;;2.95;2.10;;;16.40;97.20;;;;;;1702032;29;20199;-73
2022/10/16 05:53:42;;;;;;;6.93;2.63;;;16.40;97.20;;;;;;1702083;29;20701;-72
2022/10/16 05:54:32;;;;;;;4.35;2.60;;;16.40;97.20;;;;;;1702050;29;20214;-73
2022/10/16 05:55:24;;;;;;;5.73;2.20;;;16.40;97.20;;;;;;1701903;29;20207;-72
2022/10/16 05:56:15;;;;;;;3.78;2.20;;;16.40;97.20;;;;;;1701785;29;20241;-72
2022/10/16 05:57:07;;;;;;;6.80;2.35;;;16.40;97.20;;;;;;1702038;29;20294;-72
2022/10/16 05:57:57;;;;;;;5.78;2.30;;;16.40;97.20;;;;;;1701997;29;20214;-72
2022/10/16 05:58:49;;;;;;;5.57;2.47;;;16.40;97.20;;;;;;1702027;29;20195;-72
2022/10/16 05:59:40;;;;;;;3.80;2.85;;;16.40;97.20;;;;;;1702033;29;20327;-72
2022/10/16 06:00:32;;;;;;;2.57;2.03;;;16.40;97.20;;;;;;1701933;29;20239;-72
2022/10/16 06:01:23;;;;;;;4.60;1.90;;;16.40;97.20;;;;;;1702982;29;20207;-72
2022/10/16 06:02:17;;;;;;;7.07;2.40;;;16.40;97.20;;;;;;1701979;29;20206;-72
2022/10/16 06:03:08;;;;;;;3.33;2.10;;;16.40;97.20;;;;;;1701939;29;20696;-72
2022/10/16 06:04:00;;;;;;;5.93;2.33;;;16.40;97.20;;;;;;1701972;29;20254;-72
2022/10/16 06:04:53;;;;;;;2.92;1.70;;;16.40;97.20;;;;;;1702060;29;20199;-72
2022/10/16 06:05:45;;;;;;;3.65;1.95;;;16.40;97.20;;;;;;1701926;29;20282;-72
2022/10/16 06:06:36;;;;;;;4.13;1.90;;;16.50;97.20;;;;;;1701666;29;20199;-72
2022/10/16 06:07:28;;;;;;;2.97;2.00;;;16.50;97.20;;;;;;1701925;29;20211;-72
2022/10/16 06:08:20;;;;;;;4.95;2.17;;;16.50;97.20;;;;;;1702034;29;20214;-72
2022/10/16 06:09:11;;;;;;;3.63;1.80;;;16.50;97.20;;;;;;1701941;29;20658;-72
2022/10/16 06:10:03;;;;;;;3.35;2.00;;;16.50;97.20;;;;;;1704039;29;20206;-72
2022/10/16 06:11:02;;;;;;;4.57;2.05;;;16.50;97.20;;;;;;1708517;28;20214;-72
2022/10/16 06:11:53;;;;;;;2.60;2.35;;;16.50;97.20;;;;;;1708588;28;20467;-72
2022/10/16 06:12:45;;;;;;;4.17;3.30;;;16.50;97.20;;;;;;1708587;29;20253;-72
2022/10/16 06:13:36;;;;;;;7.82;2.30;;;16.50;97.20;;;;;;1708407;28;20218;-72
2022/10/16 06:14:28;;;;;;;6.00;2.30;;;16.50;97.20;;;;;;1708558;28;20285;-72
2022/10/16 06:15:18;;;;;;;4.00;2.70;;;16.50;97.20;;;;;;1708553;28;20585;-73
2022/10/16 06:16:11;;;;;;;10.57;3.83;;;16.50;97.20;;;;;;1708209;28;20202;-72
2022/10/16 06:17:02;;;;;;;5.88;3.75;;;16.50;97.20;;;;;;1708583;28;20215;-72
2022/10/16 06:17:55;;;;;;;5.90;3.80;;;16.50;97.20;;;;;;1708463;28;20198;-73
2022/10/16 06:18:46;;;;;;;5.28;3.80;;;16.50;97.20;;;;;;1708465;28;20214;-73
2022/10/16 06:19:38;;;;;;;9.43;4.90;;;16.50;97.20;;;;;;1708470;28;20199;-72
2022/10/16 06:20:28;;;;;;;7.90;4.45;;;16.50;97.20;;;;;;1708390;28;20683;-73
2022/10/16 06:21:24;;;;;;;8.20;5.00;;;16.50;97.20;;;;;;1708546;28;20687;-73
2022/10/16 06:22:15;;;;;;;9.18;4.93;;;16.50;97.20;;;;;;1708673;28;20215;-73
2022/10/16 06:23:07;;;;;;;5.63;4.75;;;16.50;97.20;;;;;;1708459;28;20245;-72
2022/10/16 06:23:58;;;;;;;7.53;4.53;;;16.50;97.20;;;;;;1708542;28;20626;-73
2022/10/16 06:24:50;;;;;;;6.05;5.07;;;16.50;97.20;;;;;;1703273;28;20199;-73
2022/10/16 06:25:41;;;;;;;4.85;4.35;;;16.60;97.20;;;;;;1701845;29;20210;-73
2022/10/16 06:26:33;;;;;;;4.40;4.00;;;16.60;97.20;;;;;;1701638;29;20209;-72
2022/10/16 06:27:24;;;;;;;8.13;4.53;;;16.60;97.20;;;;;;1701787;29;20687;-72
2022/10/16 06:28:16;;;;;;;7.97;3.72;;;16.60;97.20;;;;;;1701859;29;20207;-72
2022/10/16 06:29:08;;;;;;;6.65;4.20;;;16.60;97.20;;;;;;1701905;29;20208;-73
2022/10/16 06:29:59;;;;;;;5.47;3.95;;;16.60;97.20;;;;;;1701887;29;20203;-73
2022/10/16 06:30:59;;;;;;;5.78;3.83;;;16.60;97.20;;;;;;1701650;29;20235;-72
2022/10/16 06:31:50;;;;;;;4.53;3.50;;;16.60;97.20;;;;;;1701798;29;20263;-72
2022/10/16 06:32:41;;;;;;;7.28;3.35;;;16.60;97.20;;;;;;1701862;29;20583;-73
2022/10/16 06:33:34;;;;;;;4.40;3.50;;;16.60;97.20;;;;;;1701669;29;20570;-72
2022/10/16 06:34:25;;;;;;;8.80;2.92;;;16.60;97.20;;;;;;1701913;29;20222;-72
2022/10/16 06:35:17;;;;;;;6.33;3.20;;;16.60;97.20;;;;;;1703862;29;20206;-72
2022/10/16 06:36:09;;;;;;;3.92;2.58;;;16.60;97.20;;;;;;1708473;28;20206;-72
2022/10/16 06:37:01;;;;;;;3.03;2.40;;;16.60;97.20;;;;;;1708378;28;20261;-73
2022/10/16 06:37:52;;;;;;;5.50;2.40;;;16.60;97.20;;;;;;1708315;28;20212;-73
2022/10/16 06:38:45;;;;;;;8.52;2.70;;;16.70;97.20;;;;;;1708362;28;20208;-72
2022/10/16 06:39:36;;;;;;;3.17;2.30;;;16.70;97.20;;;;;;1708340;28;20220;-72
2022/10/16 06:40:27;;;;;;;5.50;2.40;;;16.70;97.20;;;;;;1708277;28;20213;-73
2022/10/16 06:41:20;;;;;;;5.93;2.28;;;16.70;97.20;;;;;;1708465;28;20211;-72
2022/10/16 06:42:11;;;;;;;6.07;2.10;;;16.70;97.20;;;;;;1708354;28;20234;-73
2022/10/16 06:43:02;;;;;;;5.53;2.30;;;16.70;97.20;;;;;;1708317;28;20202;-72
2022/10/16 06:43:54;;;;;;;4.90;2.10;;;16.70;97.20;;;;;;1708375;28;20195;-72
2022/10/16 06:44:44;;;;;;;11.15;3.63;;;16.70;97.20;;;;;;1708367;28;20209;-72
2022/10/16 06:45:36;;;;;;;2.23;1.97;;;16.70;97.20;;;;;;1708325;28;20205;-73
2022/10/16 06:46:27;;;;;;;2.53;1.90;;;16.70;97.20;;;;;;1708183;28;20250;-72
2022/10/16 06:47:19;;;;;;;8.35;2.30;;;16.70;97.20;;;;;;1708347;28;20210;-72
2022/10/16 06:48:10;;;;;;;5.25;1.77;;;16.70;97.20;;;;;;1708276;28;20573;-72
2022/10/16 06:49:03;;;;;;;5.70;2.17;;;16.70;97.20;;;;;;1708306;28;20216;-72
2022/10/16 06:49:53;;;;;;;7.18;2.05;;;16.80;97.20;;;;;;1703647;28;20199;-72
2022/10/16 06:50:45;;;;;;;7.73;2.07;;;16.80;97.20;;;;;;1701658;29;20298;-72
2022/10/16 06:51:40;;;;;;;9.05;2.47;;;16.80;97.20;;;;;;1701671;29;20203;-73
2022/10/16 06:52:31;;;;;;;5.55;1.95;;;16.80;97.20;;;;;;1701643;29;20273;-72
2022/10/16 06:53:23;;;;;;;9.13;3.00;;;16.80;97.20;;;;;;1701755;29;20207;-72
2022/10/16 06:54:15;;;;;;;3.90;2.10;;;16.80;97.20;;;;;;1701733;29;20230;-72
2022/10/16 06:55:07;;;;;;;4.75;1.95;;;16.80;97.20;;;;;;1708623;28;20202;-72
2022/10/16 06:56:07;;;;;;;3.13;2.35;;;16.80;97.20;;;;;;1711735;28;20221;-72
2022/10/16 06:56:59;;;;;;;3.50;2.50;;;16.80;97.20;;;;;;1706247;28;20238;-73
2022/10/16 06:57:50;;;;;;;5.13;3.03;;;16.80;97.20;;;;;;1708016;28;20214;-72
2022/10/16 06:58:42;;;;;;;3.23;2.40;;;16.90;97.20;;;;;;1705665;28;20198;-72
2022/10/16 06:59:33;;;;;;;5.28;3.90;;;16.90;97.20;;;;;;1704778;28;20203;-72
2022/10/16 07:00:25;;;;;;;7.47;2.97;;;16.90;97.20;;;;;;1704261;28;20199;-72
2022/10/16 07:01:18;;;;;;;2.53;2.28;;;16.90;97.20;;;;;;1705421;28;20199;-72
2022/10/16 07:02:09;;;;;;;6.00;2.50;;;16.90;97.20;;;;;;1704454;28;20221;-73
2022/10/16 07:03:00;;;;;;;5.72;2.60;;;16.90;97.20;;;;;;1704449;29;20207;-73
2022/10/16 07:03:52;;;;;;;2.80;2.20;;;16.90;97.20;;;;;;1705613;28;20199;-73
2022/10/16 07:04:44;;;;;;;3.53;1.70;;;16.90;97.20;;;;;;1704606;28;20222;-73
2022/10/16 07:05:40;;;;;;;3.28;1.90;;;16.90;97.20;;;;;;1704012;29;20676;-73
2022/10/16 07:06:32;;;;;;;4.93;2.05;;;16.90;97.20;;;;;;1702711;29;20207;-73
2022/10/16 07:07:26;;;;;;;4.30;2.00;;;16.90;97.20;;;;;;1704330;29;20698;-72
2022/10/16 07:08:17;;;;;;;3.90;1.80;;;17.00;97.20;;;;;;1704348;29;20661;-73
2022/10/16 07:09:10;;;;;;;2.23;2.03;;;17.00;97.20;;;;;;1705485;29;20664;-72
2022/10/16 07:10:01;;;;;;;3.13;2.55;;;17.00;97.20;;;;;;1706395;28;20209;-72
2022/10/16 07:11:00;;;;;;;2.83;2.47;;;17.00;97.20;;;;;;1713106;28;20241;-72
2022/10/16 07:11:51;;;;;;;5.30;3.00;;;17.00;97.20;;;;;;1714820;28;21005;-73
2022/10/16 07:12:44;;;;;;;8.83;3.17;;;17.00;97.20;;;;;;1714502;28;20609;-72
2022/10/16 07:13:36;;;;;;;3.60;2.80;;;17.00;97.20;;;;;;1712029;28;20365;-72
2022/10/16 07:14:31;;;;;;;3.20;2.75;;;17.00;97.20;;;;;;1710751;28;20253;-73
2022/10/16 07:15:22;;;;;;;2.65;2.00;;;17.00;97.20;;;;;;1709472;28;20571;-73
2022/10/16 07:16:16;;;;;;;2.60;2.27;;;17.00;97.20;;;;;;1703365;29;20318;-73
2022/10/16 07:17:07;;;;;;;5.43;2.22;;;17.00;97.20;;;;;;1706872;28;20198;-72
2022/10/16 07:17:59;;;;;;;5.97;3.10;;;17.00;97.20;;;;;;1711999;28;20197;-72
2022/10/16 07:18:51;;;;;;;5.13;2.00;;;17.00;97.20;;;;;;1705195;28;20206;-72
2022/10/16 07:19:43;;;;;;;2.60;2.17;;;17.00;97.20;;;;;;1704957;29;20195;-72
2022/10/16 07:20:35;;;;;;;2.65;2.05;;;17.10;97.20;;;;;;1704828;28;20693;-72
2022/10/16 07:21:28;;;;;;;3.53;2.20;;;17.10;97.20;;;;;;1701380;29;20203;-71
2022/10/16 07:22:19;;;;;;;6.60;2.42;;;17.10;97.20;;;;;;1711652;28;20217;-72
2022/10/16 07:23:11;;;;;;;3.00;2.38;;;17.10;97.20;;;;;;1712251;28;20197;-72
2022/10/16 07:24:03;;;;;;;2.78;2.30;;;17.10;97.20;;;;;;1705462;28;20199;-72
2022/10/16 07:24:55;;;;;;;3.80;1.90;;;17.10;97.20;;;;;;1704867;28;20235;-73
2022/10/16 07:25:52;;;;;;;3.38;2.40;;;17.10;97.20;;;;;;1705532;28;20223;-72
2022/10/16 07:26:45;;;;;;;9.65;2.38;;;17.10;97.20;;;;;;1704208;28;20929;-72
2022/10/16 07:27:36;;;;;;;6.32;2.28;;;17.10;97.20;;;;;;1704288;29;20617;-72
2022/10/16 07:28:29;;;;;;;5.17;2.20;;;17.10;97.20;;;;;;1704729;29;20613;-72
2022/10/16 07:29:21;;;;;;;5.65;2.00;;;17.10;97.20;;;;;;1706556;28;20237;-72
2022/10/16 07:30:13;;;;;;;6.53;2.38;;;17.10;97.20;;;;;;1711878;28;20198;-72
2022/10/16 07:31:06;;;;;;;4.40;2.00;;;17.20;97.20;;;;;;1703517;28;20211;-73
2022/10/16 07:31:58;;;;;;;2.40;1.92;;;17.20;97.20;;;;;;1705648;28;20214;-72
2022/10/16 07:32:49;;;;;;;2.45;1.98;;;17.20;97.20;;;;;;1705799;28;20573;-72
2022/10/16 07:33:42;;;;;;;3.63;2.40;;;17.20;97.20;;;;;;1704044;28;20633;-72
2022/10/16 07:34:33;;;;;;;4.40;2.15;;;17.20;97.20;;;;;;1704854;28;20231;-72
2022/10/16 07:35:25;;;;;;;3.20;1.93;;;17.20;97.20;;;;;;1705196;28;20187;-72
2022/10/16 07:36:18;;;;;;;4.30;1.80;;;17.20;97.20;;;;;;1704250;28;20649;-73
2022/10/16 07:37:10;;;;;;;2.63;2.08;;;17.20;97.20;;;;;;1703683;29;20678;-72
2022/10/16 07:38:01;;;;;;;9.90;2.10;;;17.20;97.20;;;;;;1704833;29;20211;-72
2022/10/16 07:38:53;;;;;;;5.07;2.03;;;17.20;97.20;;;;;;1704797;28;20228;-73
2022/10/16 07:39:43;;;;;;;4.32;2.03;;;17.20;97.20;;;;;;1703942;29;20210;-72
2022/10/16 07:40:35;;;;;;;3.37;1.83;;;17.20;97.20;;;;;;1703812;29;20309;-72
2022/10/16 07:41:26;;;;;;;6.20;2.20;;;17.20;97.20;;;;;;1705148;29;20206;-72
2022/10/16 07:42:19;;;;;;;1.90;1.75;;;17.20;97.20;;;;;;1706635;28;20249;-73
2022/10/16 07:43:11;;;;;;;2.95;2.10;;;17.30;97.20;;;;;;1711991;28;20312;-73
2022/10/16 07:44:02;;;;;;;4.13;2.50;;;17.30;97.20;;;;;;1714681;28;20202;-72
2022/10/16 07:44:53;;;;;;;4.35;1.70;;;17.30;97.20;;;;;;1714632;28;20205;-72
2022/10/16 07:45:49;;;;;;;5.50;2.17;;;17.30;97.20;;;;;;1714445;28;20202;-73
2022/10/16 07:46:40;;;;;;;3.03;2.00;;;17.30;97.20;;;;;;1713791;28;20544;-72
2022/10/16 07:47:31;;;;;;;3.53;1.90;;;17.30;97.20;;;;;;1714250;28;20261;-72
2022/10/16 07:48:24;;;;;;;4.65;2.20;;;17.30;97.20;;;;;;1714591;28;20210;-72
2022/10/16 07:49:16;;;;;;;2.40;1.65;;;17.30;97.20;;;;;;1709649;28;20205;-72
2022/10/16 07:50:07;;;;;;;8.25;2.13;;;17.30;97.20;;;;;;1707862;28;20602;-72
2022/10/16 07:50:59;;;;;;;3.20;1.70;;;17.30;97.20;;;;;;1708372;28;20676;-72
2022/10/16 07:51:52;;;;;;;1.75;1.65;;;17.30;97.20;;;;;;1714529;28;20649;-72
2022/10/16 07:52:43;;;;;;;2.20;2.00;;;17.30;97.20;;;;;;1714526;28;20212;-72
2022/10/16 07:53:34;;;;;;;4.73;1.80;;;17.40;97.20;;;;;;1713046;28;20648;-73
2022/10/16 07:54:25;;;;;;;2.80;1.88;;;17.40;97.20;;;;;;1709609;28;20489;-72
2022/10/16 07:55:17;;;;;;;3.50;2.07;;;17.40;97.20;;;;;;1709035;28;20202;-72
2022/10/16 07:56:08;;;;;;;3.25;2.95;;;17.40;97.20;;;;;;1710655;28;20580;-72
2022/10/16 07:57:00;;;;;;;3.60;2.40;;;17.40;97.20;;;;;;1704781;28;20195;-73
2022/10/16 07:57:50;;;;;;;3.10;1.90;;;17.40;97.20;;;;;;1703993;28;20214;-72
2022/10/16 07:58:42;;;;;;;2.90;2.30;;;17.40;97.20;;;;;;1703960;29;20197;-72
2022/10/16 07:59:33;;;;;;;2.90;2.38;;;17.40;97.20;;;;;;1704667;29;20226;-72
2022/10/16 08:00:24;;;;;;;4.47;2.30;;;17.40;97.20;;;;;;1704808;28;20220;-72
2022/10/16 08:01:16;;;;;;;3.72;2.10;;;17.40;97.20;;;;;;1712159;28;20198;-72
2022/10/16 08:02:08;;;;;;;2.75;2.00;;;17.40;97.20;;;;;;1707862;28;20202;-73
2022/10/16 08:03:00;;;;;;;3.72;2.45;;;17.40;97.20;;;;;;1704314;29;20222;-72
2022/10/16 08:03:55;;;;;;;1.95;1.83;;;17.50;97.20;;;;;;1707210;29;20190;-72
2022/10/16 08:04:46;;;;;;;2.50;1.95;;;17.50;97.20;;;;;;1704175;29;20679;-73
2022/10/16 08:05:38;;;;;;;3.08;1.80;;;17.50;97.20;;;;;;1705773;28;20202;-72
2022/10/16 08:06:34;;;;;;;6.88;2.00;;;17.50;97.20;;;;;;1703025;29;20234;-72
2022/10/16 08:07:27;;;;;;;1.67;1.58;;;17.50;97.20;;;;;;1706098;28;20253;-72
2022/10/16 08:08:19;;;;;;;12.88;2.15;;;17.50;97.20;;;;;;1711919;28;20206;-72
2022/10/16 08:09:11;;;;;;;8.35;1.95;;;17.50;97.20;;;;;;1709580;28;20592;-72
2022/10/16 08:10:02;;;;;;;7.85;2.00;;;17.50;97.20;;;;;;1711777;28;20202;-72
2022/10/16 08:10:54;;;;;;;5.05;2.10;;;17.50;97.20;;;;;;1713354;28;20209;-72
2022/10/16 08:11:45;;;;;;;3.35;2.13;;;17.50;97.20;;;;;;1712530;28;20213;-72
2022/10/16 08:12:37;;;;;;;2.50;1.80;;;17.50;97.20;;;;;;1706327;28;20202;-72
2022/10/16 08:13:28;;;;;;;4.53;2.05;;;17.50;97.20;;;;;;1707649;28;20480;-72
2022/10/16 08:14:19;;;;;;;3.10;1.90;;;17.50;97.20;;;;;;1708203;28;20274;-72
2022/10/16 08:15:10;;;;;;;3.63;1.90;;;17.50;97.20;;;;;;1712594;28;20231;-72
2022/10/16 08:16:03;;;;;;;4.60;2.37;;;17.50;97.20;;;;;;1714432;28;20212;-72
2022/10/16 08:16:54;;;;;;;3.25;1.55;;;17.50;97.20;;;;;;1713549;28;20210;-72
2022/10/16 08:17:54;;;;;;;5.37;2.10;;;17.50;97.20;;;;;;1714322;28;20284;-73
2022/10/16 08:18:46;;;;;;;4.50;1.92;;;17.50;97.20;;;;;;1714504;28;20190;-73
2022/10/16 08:19:37;;;;;;;2.65;1.42;;;17.50;97.20;;;;;;1714232;28;20202;-73
2022/10/16 08:20:30;;;;;;;2.78;1.70;;;17.60;97.20;;;;;;1714180;28;20198;-73
2022/10/16 08:21:22;;;;;;;6.78;1.85;;;17.60;97.20;;;;;;1713176;28;20220;-73
2022/10/16 08:22:15;;;;;;;4.60;1.75;;;17.60;97.20;;;;;;1705006;28;20195;-73
2022/10/16 08:23:07;;;;;;;5.55;2.20;;;17.60;97.20;;;;;;1708772;28;20207;-72
2022/10/16 08:24:00;;;;;;;4.20;1.77;;;17.60;97.20;;;;;;1714312;28;20225;-73
2022/10/16 08:24:50;;;;;;;2.33;1.50;;;17.60;97.20;;;;;;1714255;28;20198;-73
2022/10/16 08:25:43;;;;;;;4.00;1.87;;;17.60;97.20;;;;;;1710036;28;20282;-73
2022/10/16 08:26:33;;;;;;;2.42;2.05;;;17.70;97.20;;;;;;1707179;28;20221;-73
2022/10/16 08:27:25;;;;;;;3.30;1.80;;;17.70;97.20;;;;;;1707599;28;20203;-72
2022/10/16 08:28:16;;;;;;;2.00;1.80;;;17.70;97.20;;;;;;1707713;28;20216;-73
2022/10/16 08:29:08;;;;;;;3.80;2.00;;;17.70;97.20;;;;;;1706027;28;20226;-74
2022/10/16 08:29:59;;;;;;;2.97;2.40;;;17.80;97.20;;;;;;1704264;29;20202;-73
2022/10/16 08:30:51;;;;;;;3.20;2.00;;;17.80;97.20;;;;;;1704608;29;20226;-73
2022/10/16 08:31:41;;;;;;;4.00;1.90;;;17.80;97.20;;;;;;1702413;28;20578;-73
2022/10/16 08:32:33;;;;;;;2.43;1.47;;;17.90;97.20;;;;;;1701124;29;20235;-73
2022/10/16 08:33:24;;;;;;;1.73;1.63;;;17.90;97.20;;;;;;1701366;29;20211;-73
2022/10/16 08:34:15;;;;;;;1.70;1.60;;;17.90;97.20;;;;;;1701049;29;20207;-72
2022/10/16 08:35:07;;;;;;;2.25;1.58;;;17.90;97.20;;;;;;1701072;29;20684;-73
2022/10/16 08:35:58;;;;;;;3.88;1.75;;;18.00;97.20;;;;;;1701033;29;20207;-73
2022/10/16 08:36:49;;;;;;;1.95;1.70;;;18.00;97.20;;;;;;1700787;29;20557;-73
2022/10/16 08:37:42;;;;;;;1.80;1.40;;;18.00;97.20;;;;;;1701020;29;20567;-73
2022/10/16 08:38:34;;;;;;;2.30;2.10;;;18.00;97.20;;;;;;1701014;29;20203;-73
2022/10/16 08:39:26;;;;;;;2.65;1.60;;;18.00;97.20;;;;;;1701154;29;20233;-73
2022/10/16 08:40:20;;;;;;;1.90;1.80;;;18.00;97.20;;;;;;1701001;29;20222;-73
2022/10/16 08:41:34;;;;;;;4.15;1.65;;;18.00;97.20;;;;;;1701006;29;20203;-72
2022/10/16 08:42:38;;;;;;;4.60;1.55;;;18.10;97.20;;;;;;1701107;29;20211;-73
2022/10/16 08:43:42;;;;;;;1.80;1.70;;;18.10;97.20;;;;;;1701048;29;20199;-73
2022/10/16 08:45:13;;;;;;;1.50;1.40;;;18.10;97.20;;;;;;1701096;29;20225;-73
2022/10/16 08:46:32;;;;;;;2.15;1.38;;;18.10;97.20;;;;;;1701022;29;20875;-73
2022/10/16 08:47:26;;;;;;;2.42;1.45;;;18.10;97.20;;;;;;1699583;29;20211;-72
2022/10/16 08:48:23;;;;;;;1.70;1.60;;;18.20;97.20;;;;;;1705633;29;20739;-73
2022/10/16 08:49:15;;;;;;;3.63;1.55;;;18.20;97.20;;;;;;1707441;28;20195;-73
2022/10/16 08:50:11;;;;;;;6.65;2.13;;;18.20;97.20;;;;;;1708105;28;20289;-73
2022/10/16 08:51:03;;;;;;;1.95;1.45;;;18.20;97.20;;;;;;1714288;28;20698;-73
2022/10/16 08:51:57;;;;;;;3.40;1.65;;;18.20;97.20;;;;;;1714357;28;20206;-73
2022/10/16 08:52:47;;;;;;;3.03;1.70;;;18.20;97.20;;;;;;1714472;28;20293;-73
2022/10/16 08:53:50;;;;;;;3.40;1.90;;;18.20;97.20;;;;;;1714327;28;20272;-73
2022/10/16 08:54:43;;;;;;;3.38;1.60;;;18.20;97.20;;;;;;1714189;28;20206;-73
2022/10/16 08:55:42;;;;;;;2.42;1.73;;;18.20;97.20;;;;;;1714191;28;20202;-73
2022/10/16 08:56:33;;;;;;;4.72;1.58;;;18.20;97.20;;;;;;1700482;29;20207;-73
2022/10/16 08:57:26;;;;;;;4.10;1.90;;;18.20;97.20;;;;;;1700903;29;20215;-74
2022/10/16 08:58:19;;;;;;;3.67;1.92;;;18.20;97.20;;;;;;1703682;29;20290;-73
2022/10/16 08:59:12;;;;;;;2.13;1.90;;;18.20;97.20;;;;;;1706881;29;20573;-74
2022/10/16 09:00:13;;;;;;;3.22;2.30;;;18.20;97.20;;;;;;1706659;28;20206;-74
2022/10/16 09:01:12;;;;;;;4.78;2.13;;;18.20;97.20;;;;;;1706622;28;20256;-73
2022/10/16 09:02:14;;;;;;;1.90;1.75;;;18.20;97.20;;;;;;1711026;28;20206;-72
2022/10/16 09:03:15;;;;;;;2.05;1.80;;;18.30;97.20;;;;;;1700932;29;20211;-72
2022/10/16 09:04:36;;;;;;;3.17;1.60;;;18.30;97.20;;;;;;1705332;29;20293;-72
2022/10/16 09:05:44;;;;;;;3.05;2.10;;;18.30;97.20;;;;;;1705153;29;20214;-72
2022/10/16 09:06:46;;;;;;;1.92;1.50;;;18.30;97.20;;;;;;1706811;28;20203;-72
2022/10/16 09:07:46;;;;;;;4.20;1.90;;;18.30;97.20;;;;;;1700834;29;20204;-74
2022/10/16 09:08:47;;;;;;;3.45;1.70;;;18.40;97.20;;;;;;1700984;29;20206;-73
2022/10/16 09:09:55;;;;;;;3.25;1.80;;;18.40;97.20;;;;;;1701095;29;20296;-73
2022/10/16 09:10:57;;;;;;;2.75;1.85;;;18.40;97.20;;;;;;1700766;29;20271;-72
2022/10/16 09:11:52;;;;;;;2.75;1.67;;;18.40;97.20;;;;;;1706639;28;20210;-73
2022/10/16 09:12:52;;;;;;;3.45;2.05;;;18.40;97.20;;;;;;1700970;29;20551;-73
2022/10/16 09:13:50;;;;;;;2.80;1.60;;;18.40;97.20;;;;;;1701162;29;20215;-73
2022/10/16 09:14:53;;;;;;;1.95;1.70;;;18.50;97.20;;;;;;1700754;29;20207;-72
2022/10/16 09:15:52;;;;;;;7.95;1.95;;;18.50;97.20;;;;;;1700939;29;20230;-73
2022/10/16 09:16:48;;;;;;;3.47;1.95;;;18.50;97.20;;;;;;1705221;29;20203;-72
2022/10/16 09:17:51;;;;;;;6.75;1.80;;;18.60;97.20;;;;;;1704971;29;20293;-72
2022/10/16 09:18:48;;;;;;;3.13;1.60;;;18.60;97.20;;;;;;1705379;28;20591;-71
2022/10/16 09:19:47;;;;;;;2.95;1.80;;;18.60;97.20;;;;;;1705124;29;21866;-72
2022/10/16 09:20:48;;;;;;;4.13;1.80;;;18.60;97.20;;;;;;1705331;29;20232;-70
2022/10/16 09:21:43;;;;;;;1.70;1.60;;;18.70;97.20;;;;;;1703076;29;20202;-72
2022/10/16 09:22:34;;;;;;;3.65;1.63;;;18.70;97.20;;;;;;1707391;28;20206;-71
2022/10/16 09:23:28;;;;;;;2.60;1.73;;;18.70;97.20;;;;;;1701490;28;20692;-71
2022/10/16 09:24:23;;;;;;;4.28;1.60;;;18.70;97.20;;;;;;1700772;29;20210;-73
2022/10/16 09:25:17;;;;;;;4.78;2.20;;;18.80;97.20;;;;;;1700855;29;20204;-73
2022/10/16 09:26:11;;;;;;;2.10;1.58;;;18.80;97.20;;;;;;1700561;29;20210;-71
2022/10/16 09:27:03;;;;;;;1.50;1.40;;;18.90;97.20;;;;;;1702656;29;20203;-72
2022/10/16 09:27:54;;;;;;;7.40;1.48;;;19.00;97.20;;;;;;1707292;28;20202;-72
2022/10/16 09:28:46;;;;;;;8.10;1.60;;;19.10;97.20;;;;;;1707388;28;20238;-73
2022/10/16 09:29:36;;;;;;;1.85;1.65;;;19.20;97.20;;;;;;1707332;28;20442;-72
2022/10/16 09:30:30;;;;;;;4.60;1.93;;;19.30;97.20;;;;;;1707298;28;20202;-73
2022/10/16 09:31:22;;;;;;;3.63;1.60;;;19.50;97.20;;;;;;1707315;29;20210;-72
2022/10/16 09:32:18;;;;;;;2.00;1.40;;;19.60;97.20;;;;;;1707308;28;20297;-73
2022/10/16 09:33:10;;;;;;;1.95;1.83;;;19.70;97.20;;;;;;1707370;28;20210;-72
2022/10/16 09:34:06;;;;;;;4.10;1.50;;;19.70;97.20;;;;;;1707395;28;20210;-72
2022/10/16 09:34:57;;;;;;;4.13;1.45;;;19.80;97.20;;;;;;1707379;28;20199;-73
2022/10/16 09:35:52;;;;;;;2.58;1.85;;;19.80;97.20;;;;;;1707361;28;20688;-74